MUBY/BYM METAR and TAF weather

Enter ICAO airport designator
Station Type Date Time Source
MUBY METAR 2019/01/30 11:50 UTC NOAA

MUBY 301150Z VRB02KT 9000 FEW025 BKN060 20/17 Q1019


Station Type Date Time Source
MUBY Decoded METAR 2019/01/30 11:50 UTC NOAA

Bayamo , Cuba (MUBY) 20-24N 076-37W
Jan 30, 2019 - 06:50 AM EST / 2019.01.30 1150 UTC
Wind: Variable at 2 MPH (2 KT):0
Visibility: 5 mile(s):0
Sky conditions: mostly cloudy
Temperature: 68 F (20 C)
Dew Point: 62 F (17 C)
Relative Humidity: 82%
Pressure (altimeter): 30.09 in. Hg (1019 hPa)
ob: MUBY 301150Z VRB02KT 9000 FEW025 BKN060 20/17 Q1019
cycle: 12

Station Type Date Time Source
MUBY TAF 2007/09/26 19:15 UTC NOAA

MUBY 261915Z 31008KT 270V030 1000 RA OVC020TCU XX/XX Q1013
RMK TCU OVER AD


Example: see airport list